sensor_id;sensor_type;location;lat;lon;timestamp;P1;durP1;ratioP1;P2;durP2;ratioP2
39256;SDS011;24958;48.066;11.038;2022-07-10T00:00:16;4.25;;;3.70;;
39256;SDS011;24958;48.066;11.038;2022-07-10T00:02:42;3.92;;;3.63;;
39256;SDS011;24958;48.066;11.038;2022-07-10T00:05:10;3.90;;;3.60;;
39256;SDS011;24958;48.066;11.038;2022-07-10T00:07:36;4.53;;;4.13;;
39256;SDS011;24958;48.066;11.038;2022-07-10T00:10:03;5.00;;;4.60;;
39256;SDS011;24958;48.066;11.038;2022-07-10T00:12:30;5.35;;;4.85;;
39256;SDS011;24958;48.066;11.038;2022-07-10T00:14:56;4.30;;;4.00;;
39256;SDS011;24958;48.066;11.038;2022-07-10T00:17:22;5.10;;;4.60;;
39256;SDS011;24958;48.066;11.038;2022-07-10T00:19:48;5.32;;;4.93;;
39256;SDS011;24958;48.066;11.038;2022-07-10T00:22:14;5.93;;;5.53;;
39256;SDS011;24958;48.066;11.038;2022-07-10T00:24:39;6.30;;;5.80;;
39256;SDS011;24958;48.066;11.038;2022-07-10T00:27:05;6.30;;;5.80;;
39256;SDS011;24958;48.066;11.038;2022-07-10T00:29:31;5.72;;;5.32;;
39256;SDS011;24958;48.066;11.038;2022-07-10T00:31:57;6.30;;;5.75;;
39256;SDS011;24958;48.066;11.038;2022-07-10T00:34:23;6.38;;;5.78;;
39256;SDS011;24958;48.066;11.038;2022-07-10T00:36:49;6.53;;;6.03;;
39256;SDS011;24958;48.066;11.038;2022-07-10T00:39:15;5.88;;;5.47;;
39256;SDS011;24958;48.066;11.038;2022-07-10T00:41:41;6.07;;;5.57;;
39256;SDS011;24958;48.066;11.038;2022-07-10T00:44:07;6.32;;;5.82;;
39256;SDS011;24958;48.066;11.038;2022-07-10T00:46:34;6.97;;;6.45;;
39256;SDS011;24958;48.066;11.038;2022-07-10T00:49:00;6.43;;;5.93;;
39256;SDS011;24958;48.066;11.038;2022-07-10T00:51:27;6.78;;;6.13;;
39256;SDS011;24958;48.066;11.038;2022-07-10T00:53:54;6.43;;;5.82;;
39256;SDS011;24958;48.066;11.038;2022-07-10T00:56:21;6.38;;;5.88;;
39256;SDS011;24958;48.066;11.038;2022-07-10T00:58:48;6.63;;;6.03;;
39256;SDS011;24958;48.066;11.038;2022-07-10T01:01:14;6.30;;;5.70;;
39256;SDS011;24958;48.066;11.038;2022-07-10T01:03:41;6.25;;;5.68;;
39256;SDS011;24958;48.066;11.038;2022-07-10T01:06:08;6.55;;;5.88;;
39256;SDS011;24958;48.066;11.038;2022-07-10T01:08:34;6.43;;;5.90;;
39256;SDS011;24958;48.066;11.038;2022-07-10T01:11:01;6.68;;;6.18;;
39256;SDS011;24958;48.066;11.038;2022-07-10T01:13:27;7.18;;;6.60;;
39256;SDS011;24958;48.066;11.038;2022-07-10T01:15:54;6.25;;;5.75;;
39256;SDS011;24958;48.066;11.038;2022-07-10T01:18:20;6.05;;;5.55;;
39256;SDS011;24958;48.066;11.038;2022-07-10T01:20:51;6.97;;;6.47;;
39256;SDS011;24958;48.066;11.038;2022-07-10T01:23:17;8.82;;;7.25;;
39256;SDS011;24958;48.066;11.038;2022-07-10T01:25:43;7.35;;;6.75;;
39256;SDS011;24958;48.066;11.038;2022-07-10T01:28:08;8.25;;;7.60;;
39256;SDS011;24958;48.066;11.038;2022-07-10T01:30:35;8.43;;;7.70;;
39256;SDS011;24958;48.066;11.038;2022-07-10T01:33:01;8.02;;;7.30;;
39256;SDS011;24958;48.066;11.038;2022-07-10T01:35:26;7.97;;;7.32;;
39256;SDS011;24958;48.066;11.038;2022-07-10T01:37:52;7.88;;;7.18;;
39256;SDS011;24958;48.066;11.038;2022-07-10T01:40:18;8.82;;;8.05;;
39256;SDS011;24958;48.066;11.038;2022-07-10T01:42:44;8.35;;;7.55;;
39256;SDS011;24958;48.066;11.038;2022-07-10T01:45:10;8.48;;;7.78;;
39256;SDS011;24958;48.066;11.038;2022-07-10T01:47:36;8.18;;;7.47;;
39256;SDS011;24958;48.066;11.038;2022-07-10T01:50:03;8.15;;;7.43;;
39256;SDS011;24958;48.066;11.038;2022-07-10T01:52:29;8.23;;;7.50;;
39256;SDS011;24958;48.066;11.038;2022-07-10T01:54:55;7.32;;;6.82;;
39256;SDS011;24958;48.066;11.038;2022-07-10T01:57:21;7.70;;;7.10;;
39256;SDS011;24958;48.066;11.038;2022-07-10T01:59:47;8.05;;;7.35;;
39256;SDS011;24958;48.066;11.038;2022-07-10T02:02:13;7.22;;;6.70;;
39256;SDS011;24958;48.066;11.038;2022-07-10T02:04:39;8.20;;;7.50;;
39256;SDS011;24958;48.066;11.038;2022-07-10T02:07:12;7.32;;;6.72;;
39256;SDS011;24958;48.066;11.038;2022-07-10T02:09:39;7.50;;;6.90;;
39256;SDS011;24958;48.066;11.038;2022-07-10T02:12:08;7.90;;;7.30;;
39256;SDS011;24958;48.066;11.038;2022-07-10T02:14:35;7.50;;;6.90;;
39256;SDS011;24958;48.066;11.038;2022-07-10T02:17:01;7.50;;;6.90;;
39256;SDS011;24958;48.066;11.038;2022-07-10T02:19:27;8.07;;;7.47;;
39256;SDS011;24958;48.066;11.038;2022-07-10T02:21:53;7.75;;;7.07;;
39256;SDS011;24958;48.066;11.038;2022-07-10T02:24:19;8.20;;;7.60;;
39256;SDS011;24958;48.066;11.038;2022-07-10T02:26:45;7.97;;;7.28;;
39256;SDS011;24958;48.066;11.038;2022-07-10T02:29:11;7.90;;;7.40;;
39256;SDS011;24958;48.066;11.038;2022-07-10T02:31:37;8.13;;;7.43;;
39256;SDS011;24958;48.066;11.038;2022-07-10T02:34:12;7.80;;;7.10;;
39256;SDS011;24958;48.066;11.038;2022-07-10T02:36:39;7.00;;;6.50;;
39256;SDS011;24958;48.066;11.038;2022-07-10T02:39:05;7.22;;;6.72;;
39256;SDS011;24958;48.066;11.038;2022-07-10T02:41:32;7.95;;;7.25;;
39256;SDS011;24958;48.066;11.038;2022-07-10T02:43:58;7.93;;;7.22;;
39256;SDS011;24958;48.066;11.038;2022-07-10T02:46:24;7.55;;;6.95;;
39256;SDS011;24958;48.066;11.038;2022-07-10T02:48:50;8.32;;;7.63;;
39256;SDS011;24958;48.066;11.038;2022-07-10T02:51:17;8.10;;;7.50;;
39256;SDS011;24958;48.066;11.038;2022-07-10T02:53:43;8.27;;;7.57;;
39256;SDS011;24958;48.066;11.038;2022-07-10T02:56:09;7.85;;;7.25;;
39256;SDS011;24958;48.066;11.038;2022-07-10T02:58:37;7.82;;;7.15;;
39256;SDS011;24958;48.066;11.038;2022-07-10T03:01:03;7.40;;;6.88;;
39256;SDS011;24958;48.066;11.038;2022-07-10T03:03:29;7.88;;;7.20;;
39256;SDS011;24958;48.066;11.038;2022-07-10T03:05:55;8.40;;;7.68;;
39256;SDS011;24958;48.066;11.038;2022-07-10T03:08:21;7.35;;;6.75;;
39256;SDS011;24958;48.066;11.038;2022-07-10T03:10:47;7.80;;;7.20;;
39256;SDS011;24958;48.066;11.038;2022-07-10T03:13:13;8.32;;;7.63;;
39256;SDS011;24958;48.066;11.038;2022-07-10T03:15:39;7.68;;;7.07;;
39256;SDS011;24958;48.066;11.038;2022-07-10T03:18:05;8.38;;;7.68;;
39256;SDS011;24958;48.066;11.038;2022-07-10T03:20:31;7.85;;;7.32;;
39256;SDS011;24958;48.066;11.038;2022-07-10T03:22:57;7.97;;;7.38;;
39256;SDS011;24958;48.066;11.038;2022-07-10T03:25:23;8.23;;;7.63;;
39256;SDS011;24958;48.066;11.038;2022-07-10T03:27:49;7.40;;;6.88;;
39256;SDS011;24958;48.066;11.038;2022-07-10T03:30:15;8.00;;;7.40;;
39256;SDS011;24958;48.066;11.038;2022-07-10T03:32:41;7.07;;;6.57;;
39256;SDS011;24958;48.066;11.038;2022-07-10T03:35:07;8.10;;;7.40;;
39256;SDS011;24958;48.066;11.038;2022-07-10T03:37:33;7.75;;;7.15;;
39256;SDS011;24958;48.066;11.038;2022-07-10T03:39:59;8.05;;;7.35;;
39256;SDS011;24958;48.066;11.038;2022-07-10T03:42:25;7.43;;;6.82;;
39256;SDS011;24958;48.066;11.038;2022-07-10T03:44:50;7.93;;;7.32;;
39256;SDS011;24958;48.066;11.038;2022-07-10T03:47:16;8.95;;;8.15;;
39256;SDS011;24958;48.066;11.038;2022-07-10T03:49:42;8.13;;;7.53;;
39256;SDS011;24958;48.066;11.038;2022-07-10T03:52:08;8.05;;;7.25;;
39256;SDS011;24958;48.066;11.038;2022-07-10T03:54:34;8.80;;;8.00;;
39256;SDS011;24958;48.066;11.038;2022-07-10T03:57:00;7.90;;;7.20;;
39256;SDS011;24958;48.066;11.038;2022-07-10T03:59:45;8.40;;;7.70;;
39256;SDS011;24958;48.066;11.038;2022-07-10T04:02:11;7.80;;;7.20;;
39256;SDS011;24958;48.066;11.038;2022-07-10T04:04:37;7.47;;;6.97;;
39256;SDS011;24958;48.066;11.038;2022-07-10T04:07:03;7.82;;;7.22;;
39256;SDS011;24958;48.066;11.038;2022-07-10T04:09:30;7.85;;;7.25;;
39256;SDS011;24958;48.066;11.038;2022-07-10T04:11:56;8.18;;;7.55;;
39256;SDS011;24958;48.066;11.038;2022-07-10T04:14:22;8.38;;;7.68;;
39256;SDS011;24958;48.066;11.038;2022-07-10T04:16:48;8.35;;;7.75;;
39256;SDS011;24958;48.066;11.038;2022-07-10T04:19:14;9.38;;;8.57;;
39256;SDS011;24958;48.066;11.038;2022-07-10T04:21:40;9.07;;;8.38;;
39256;SDS011;24958;48.066;11.038;2022-07-10T04:24:06;8.43;;;7.82;;
39256;SDS011;24958;48.066;11.038;2022-07-10T04:26:33;9.85;;;9.07;;
39256;SDS011;24958;48.066;11.038;2022-07-10T04:28:59;9.40;;;8.70;;
39256;SDS011;24958;48.066;11.038;2022-07-10T04:31:25;9.95;;;9.13;;
39256;SDS011;24958;48.066;11.038;2022-07-10T04:33:51;9.43;;;8.73;;
39256;SDS011;24958;48.066;11.038;2022-07-10T04:36:17;9.95;;;9.15;;
39256;SDS011;24958;48.066;11.038;2022-07-10T04:38:43;10.13;;;9.32;;
39256;SDS011;24958;48.066;11.038;2022-07-10T04:41:09;9.55;;;8.73;;
39256;SDS011;24958;48.066;11.038;2022-07-10T04:43:35;9.13;;;8.32;;
39256;SDS011;24958;48.066;11.038;2022-07-10T04:46:01;9.77;;;9.00;;
39256;SDS011;24958;48.066;11.038;2022-07-10T04:48:27;8.85;;;8.15;;
39256;SDS011;24958;48.066;11.038;2022-07-10T04:50:53;9.63;;;8.85;;
39256;SDS011;24958;48.066;11.038;2022-07-10T04:53:19;9.15;;;8.48;;
39256;SDS011;24958;48.066;11.038;2022-07-10T04:55:45;10.35;;;9.57;;
39256;SDS011;24958;48.066;11.038;2022-07-10T04:58:11;10.25;;;9.35;;
39256;SDS011;24958;48.066;11.038;2022-07-10T05:00:37;10.55;;;9.65;;
39256;SDS011;24958;48.066;11.038;2022-07-10T05:03:04;9.93;;;9.13;;
39256;SDS011;24958;48.066;11.038;2022-07-10T05:05:30;10.02;;;9.18;;
39256;SDS011;24958;48.066;11.038;2022-07-10T05:07:56;10.88;;;9.98;;
39256;SDS011;24958;48.066;11.038;2022-07-10T05:10:23;10.05;;;9.15;;
39256;SDS011;24958;48.066;11.038;2022-07-10T05:12:49;10.27;;;9.40;;
39256;SDS011;24958;48.066;11.038;2022-07-10T05:15:15;10.02;;;9.23;;
39256;SDS011;24958;48.066;11.038;2022-07-10T05:17:41;10.43;;;9.52;;
39256;SDS011;24958;48.066;11.038;2022-07-10T05:20:07;10.73;;;9.82;;
39256;SDS011;24958;48.066;11.038;2022-07-10T05:22:33;11.05;;;10.13;;
39256;SDS011;24958;48.066;11.038;2022-07-10T05:24:59;11.48;;;10.32;;
39256;SDS011;24958;48.066;11.038;2022-07-10T05:27:25;11.43;;;10.52;;
39256;SDS011;24958;48.066;11.038;2022-07-10T05:29:51;12.00;;;10.90;;
39256;SDS011;24958;48.066;11.038;2022-07-10T05:32:18;12.60;;;11.52;;
39256;SDS011;24958;48.066;11.038;2022-07-10T05:34:44;13.00;;;11.82;;
39256;SDS011;24958;48.066;11.038;2022-07-10T05:37:10;12.90;;;11.73;;
39256;SDS011;24958;48.066;11.038;2022-07-10T05:39:36;12.90;;;11.70;;
39256;SDS011;24958;48.066;11.038;2022-07-10T05:42:02;12.82;;;11.82;;
39256;SDS011;24958;48.066;11.038;2022-07-10T05:44:28;14.38;;;13.02;;
39256;SDS011;24958;48.066;11.038;2022-07-10T05:46:54;13.77;;;12.60;;
39256;SDS011;24958;48.066;11.038;2022-07-10T05:49:21;13.63;;;12.43;;
39256;SDS011;24958;48.066;11.038;2022-07-10T05:51:47;15.30;;;13.90;;
39256;SDS011;24958;48.066;11.038;2022-07-10T05:54:13;13.10;;;12.00;;
39256;SDS011;24958;48.066;11.038;2022-07-10T05:56:39;14.40;;;13.20;;
39256;SDS011;24958;48.066;11.038;2022-07-10T05:59:05;14.80;;;13.40;;
39256;SDS011;24958;48.066;11.038;2022-07-10T06:01:31;14.85;;;13.48;;
39256;SDS011;24958;48.066;11.038;2022-07-10T06:03:57;15.45;;;14.05;;
39256;SDS011;24958;48.066;11.038;2022-07-10T06:06:23;15.60;;;14.20;;
39256;SDS011;24958;48.066;11.038;2022-07-10T06:08:49;15.15;;;13.80;;
39256;SDS011;24958;48.066;11.038;2022-07-10T06:11:15;15.65;;;14.35;;
39256;SDS011;24958;48.066;11.038;2022-07-10T06:13:41;16.02;;;14.63;;
39256;SDS011;24958;48.066;11.038;2022-07-10T06:16:07;14.60;;;13.23;;
39256;SDS011;24958;48.066;11.038;2022-07-10T06:18:33;15.90;;;14.55;;
39256;SDS011;24958;48.066;11.038;2022-07-10T06:20:59;15.55;;;14.23;;
39256;SDS011;24958;48.066;11.038;2022-07-10T06:23:25;14.48;;;13.27;;
39256;SDS011;24958;48.066;11.038;2022-07-10T06:25:51;14.40;;;13.20;;
39256;SDS011;24958;48.066;11.038;2022-07-10T06:28:17;14.35;;;13.00;;
39256;SDS011;24958;48.066;11.038;2022-07-10T06:30:44;13.75;;;12.55;;
39256;SDS011;24958;48.066;11.038;2022-07-10T06:33:11;14.38;;;13.18;;
39256;SDS011;24958;48.066;11.038;2022-07-10T06:35:37;14.32;;;13.02;;
39256;SDS011;24958;48.066;11.038;2022-07-10T06:38:03;13.82;;;12.73;;
39256;SDS011;24958;48.066;11.038;2022-07-10T06:40:29;13.38;;;12.30;;
39256;SDS011;24958;48.066;11.038;2022-07-10T06:42:55;14.50;;;13.05;;
39256;SDS011;24958;48.066;11.038;2022-07-10T06:45:21;14.18;;;13.07;;
39256;SDS011;24958;48.066;11.038;2022-07-10T06:47:47;14.73;;;13.32;;
39256;SDS011;24958;48.066;11.038;2022-07-10T06:50:24;13.50;;;12.40;;
39256;SDS011;24958;48.066;11.038;2022-07-10T06:52:51;13.93;;;12.80;;
39256;SDS011;24958;48.066;11.038;2022-07-10T06:55:20;13.82;;;12.63;;
39256;SDS011;24958;48.066;11.038;2022-07-10T06:57:46;13.63;;;12.43;;
39256;SDS011;24958;48.066;11.038;2022-07-10T07:00:12;13.38;;;12.18;;
39256;SDS011;24958;48.066;11.038;2022-07-10T07:02:38;13.48;;;12.27;;
39256;SDS011;24958;48.066;11.038;2022-07-10T07:05:05;13.00;;;11.98;;
39256;SDS011;24958;48.066;11.038;2022-07-10T07:07:32;13.23;;;11.95;;
39256;SDS011;24958;48.066;11.038;2022-07-10T07:09:58;12.20;;;11.18;;
39256;SDS011;24958;48.066;11.038;2022-07-10T07:12:24;11.48;;;10.57;;
39256;SDS011;24958;48.066;11.038;2022-07-10T07:14:50;12.63;;;11.43;;
39256;SDS011;24958;48.066;11.038;2022-07-10T07:17:16;11.63;;;10.63;;
39256;SDS011;24958;48.066;11.038;2022-07-10T07:19:50;12.32;;;11.32;;
39256;SDS011;24958;48.066;11.038;2022-07-10T07:22:34;11.48;;;10.57;;
39256;SDS011;24958;48.066;11.038;2022-07-10T07:25:19;10.85;;;9.95;;
39256;SDS011;24958;48.066;11.038;2022-07-10T07:27:45;11.50;;;10.57;;
39256;SDS011;24958;48.066;11.038;2022-07-10T07:30:13;11.70;;;10.70;;
39256;SDS011;24958;48.066;11.038;2022-07-10T07:32:42;10.40;;;9.57;;
39256;SDS011;24958;48.066;11.038;2022-07-10T07:35:08;10.65;;;9.85;;
39256;SDS011;24958;48.066;11.038;2022-07-10T07:37:38;10.80;;;9.80;;
39256;SDS011;24958;48.066;11.038;2022-07-10T07:40:04;10.57;;;9.60;;
39256;SDS011;24958;48.066;11.038;2022-07-10T07:42:30;9.50;;;8.63;;
39256;SDS011;24958;48.066;11.038;2022-07-10T07:44:57;9.52;;;8.75;;
39256;SDS011;24958;48.066;11.038;2022-07-10T07:47:23;10.00;;;9.20;;
39256;SDS011;24958;48.066;11.038;2022-07-10T07:49:49;11.20;;;10.30;;
39256;SDS011;24958;48.066;11.038;2022-07-10T07:52:15;9.15;;;8.35;;
39256;SDS011;24958;48.066;11.038;2022-07-10T07:54:41;9.07;;;8.35;;
39256;SDS011;24958;48.066;11.038;2022-07-10T07:57:07;8.85;;;8.15;;
39256;SDS011;24958;48.066;11.038;2022-07-10T07:59:33;8.65;;;7.95;;
39256;SDS011;24958;48.066;11.038;2022-07-10T08:01:59;9.18;;;8.38;;
39256;SDS011;24958;48.066;11.038;2022-07-10T08:04:25;8.93;;;8.20;;
39256;SDS011;24958;48.066;11.038;2022-07-10T08:06:51;9.55;;;8.70;;
39256;SDS011;24958;48.066;11.038;2022-07-10T08:09:19;9.18;;;8.25;;
39256;SDS011;24958;48.066;11.038;2022-07-10T08:11:45;8.07;;;7.25;;
39256;SDS011;24958;48.066;11.038;2022-07-10T08:14:11;8.18;;;7.47;;
39256;SDS011;24958;48.066;11.038;2022-07-10T08:16:37;7.40;;;6.80;;
39256;SDS011;24958;48.066;11.038;2022-07-10T08:19:03;7.63;;;6.93;;
39256;SDS011;24958;48.066;11.038;2022-07-10T08:21:29;6.38;;;5.80;;
39256;SDS011;24958;48.066;11.038;2022-07-10T08:23:55;5.68;;;5.28;;
39256;SDS011;24958;48.066;11.038;2022-07-10T08:26:21;5.53;;;5.13;;
39256;SDS011;24958;48.066;11.038;2022-07-10T08:28:47;5.60;;;5.10;;
39256;SDS011;24958;48.066;11.038;2022-07-10T08:31:13;6.50;;;5.38;;
39256;SDS011;24958;48.066;11.038;2022-07-10T08:33:39;5.45;;;4.85;;
39256;SDS011;24958;48.066;11.038;2022-07-10T08:36:05;5.00;;;4.60;;
39256;SDS011;24958;48.066;11.038;2022-07-10T08:38:31;4.78;;;4.38;;
39256;SDS011;24958;48.066;11.038;2022-07-10T08:40:57;4.82;;;4.00;;
39256;SDS011;24958;48.066;11.038;2022-07-10T08:43:27;4.80;;;4.20;;
39256;SDS011;24958;48.066;11.038;2022-07-10T08:45:53;4.78;;;4.20;;
39256;SDS011;24958;48.066;11.038;2022-07-10T08:48:23;4.85;;;4.32;;
39256;SDS011;24958;48.066;11.038;2022-07-10T08:50:52;4.40;;;4.05;;
39256;SDS011;24958;48.066;11.038;2022-07-10T08:55:47;4.30;;;3.92;;
39256;SDS011;24958;48.066;11.038;2022-07-10T08:58:14;4.47;;;4.07;;
39256;SDS011;24958;48.066;11.038;2022-07-10T09:00:40;3.88;;;3.58;;
39256;SDS011;24958;48.066;11.038;2022-07-10T09:03:07;4.60;;;3.83;;
39256;SDS011;24958;48.066;11.038;2022-07-10T09:05:33;4.78;;;4.28;;
39256;SDS011;24958;48.066;11.038;2022-07-10T09:08:00;4.18;;;3.80;;
39256;SDS011;24958;48.066;11.038;2022-07-10T09:10:26;4.18;;;3.70;;
39256;SDS011;24958;48.066;11.038;2022-07-10T09:15:19;5.15;;;3.90;;
39256;SDS011;24958;48.066;11.038;2022-07-10T09:17:50;3.80;;;3.50;;
39256;SDS011;24958;48.066;11.038;2022-07-10T09:20:25;3.65;;;3.33;;
39256;SDS011;24958;48.066;11.038;2022-07-10T09:22:51;3.60;;;3.40;;
39256;SDS011;24958;48.066;11.038;2022-07-10T09:25:17;3.55;;;3.25;;
39256;SDS011;24958;48.066;11.038;2022-07-10T09:27:52;3.92;;;3.55;;
39256;SDS011;24958;48.066;11.038;2022-07-10T09:30:31;3.75;;;3.40;;
39256;SDS011;24958;48.066;11.038;2022-07-10T09:33:17;3.45;;;3.25;;
39256;SDS011;24958;48.066;11.038;2022-07-10T09:41:26;4.78;;;3.30;;
39256;SDS011;24958;48.066;11.038;2022-07-10T09:43:59;3.05;;;2.75;;
39256;SDS011;24958;48.066;11.038;2022-07-10T09:46:32;3.85;;;3.15;;
39256;SDS011;24958;48.066;11.038;2022-07-10T09:49:02;2.67;;;2.45;;
39256;SDS011;24958;48.066;11.038;2022-07-10T09:51:29;3.15;;;2.95;;
39256;SDS011;24958;48.066;11.038;2022-07-10T09:53:56;3.08;;;2.78;;
39256;SDS011;24958;48.066;11.038;2022-07-10T09:56:24;2.90;;;2.70;;
39256;SDS011;24958;48.066;11.038;2022-07-10T09:58:52;3.25;;;2.95;;
39256;SDS011;24958;48.066;11.038;2022-07-10T10:01:18;2.95;;;2.65;;
39256;SDS011;24958;48.066;11.038;2022-07-10T10:03:44;2.75;;;2.55;;
39256;SDS011;24958;48.066;11.038;2022-07-10T10:06:16;2.92;;;2.60;;
39256;SDS011;24958;48.066;11.038;2022-07-10T10:11:08;3.20;;;2.58;;
39256;SDS011;24958;48.066;11.038;2022-07-10T10:13:39;2.97;;;2.78;;
39256;SDS011;24958;48.066;11.038;2022-07-10T10:16:05;2.80;;;2.60;;
39256;SDS011;24958;48.066;11.038;2022-07-10T10:18:33;3.42;;;3.13;;
39256;SDS011;24958;48.066;11.038;2022-07-10T10:21:00;3.25;;;2.53;;
39256;SDS011;24958;48.066;11.038;2022-07-10T10:23:26;3.20;;;2.70;;
39256;SDS011;24958;48.066;11.038;2022-07-10T10:25:56;3.28;;;2.72;;
39256;SDS011;24958;48.066;11.038;2022-07-10T10:28:24;3.38;;;2.78;;
39256;SDS011;24958;48.066;11.038;2022-07-10T10:30:54;2.92;;;2.67;;
39256;SDS011;24958;48.066;11.038;2022-07-10T10:36:08;3.72;;;2.50;;
39256;SDS011;24958;48.066;11.038;2022-07-10T10:49:23;2.92;;;2.40;;
39256;SDS011;24958;48.066;11.038;2022-07-10T10:52:00;2.83;;;2.47;;
39256;SDS011;24958;48.066;11.038;2022-07-10T10:54:58;3.05;;;2.50;;
39256;SDS011;24958;48.066;11.038;2022-07-10T10:57:15;3.42;;;2.55;;
39256;SDS011;24958;48.066;11.038;2022-07-10T11:02:21;4.28;;;2.30;;
39256;SDS011;24958;48.066;11.038;2022-07-10T11:04:51;3.47;;;2.60;;
39256;SDS011;24958;48.066;11.038;2022-07-10T11:13:02;2.45;;;2.30;;
39256;SDS011;24958;48.066;11.038;2022-07-10T11:15:28;2.63;;;2.13;;
39256;SDS011;24958;48.066;11.038;2022-07-10T11:17:55;3.92;;;2.30;;
39256;SDS011;24958;48.066;11.038;2022-07-10T11:20:22;3.58;;;2.63;;
39256;SDS011;24958;48.066;11.038;2022-07-10T11:28:05;2.30;;;2.10;;
39256;SDS011;24958;48.066;11.038;2022-07-10T11:30:43;2.30;;;2.10;;
39256;SDS011;24958;48.066;11.038;2022-07-10T11:33:09;3.30;;;2.20;;
39256;SDS011;24958;48.066;11.038;2022-07-10T11:35:35;2.63;;;1.90;;
39256;SDS011;24958;48.066;11.038;2022-07-10T11:38:01;4.50;;;2.13;;
39256;SDS011;24958;48.066;11.038;2022-07-10T11:40:27;2.33;;;1.95;;
39256;SDS011;24958;48.066;11.038;2022-07-10T11:42:56;1.98;;;1.88;;
39256;SDS011;24958;48.066;11.038;2022-07-10T11:45:28;1.70;;;1.60;;
39256;SDS011;24958;48.066;11.038;2022-07-10T11:47:55;2.88;;;1.95;;
39256;SDS011;24958;48.066;11.038;2022-07-10T11:50:21;4.00;;;1.90;;
39256;SDS011;24958;48.066;11.038;2022-07-10T11:52:48;2.20;;;1.77;;
39256;SDS011;24958;48.066;11.038;2022-07-10T11:55:15;1.83;;;1.70;;
39256;SDS011;24958;48.066;11.038;2022-07-10T11:57:41;6.95;;;2.08;;
39256;SDS011;24958;48.066;11.038;2022-07-10T12:00:46;4.32;;;1.73;;
39256;SDS011;24958;48.066;11.038;2022-07-10T12:03:19;2.50;;;2.30;;
39256;SDS011;24958;48.066;11.038;2022-07-10T12:05:45;1.80;;;1.70;;
39256;SDS011;24958;48.066;11.038;2022-07-10T12:08:11;2.20;;;2.00;;
39256;SDS011;24958;48.066;11.038;2022-07-10T12:10:38;2.00;;;1.80;;
39256;SDS011;24958;48.066;11.038;2022-07-10T12:13:13;3.13;;;2.05;;
39256;SDS011;24958;48.066;11.038;2022-07-10T12:15:44;2.08;;;1.88;;
39256;SDS011;24958;48.066;11.038;2022-07-10T12:18:20;2.28;;;1.80;;
39256;SDS011;24958;48.066;11.038;2022-07-10T12:20:46;3.05;;;1.70;;
39256;SDS011;24958;48.066;11.038;2022-07-10T12:23:20;2.55;;;2.00;;
39256;SDS011;24958;48.066;11.038;2022-07-10T12:25:48;3.22;;;1.80;;
39256;SDS011;24958;48.066;11.038;2022-07-10T12:28:14;3.00;;;1.67;;
39256;SDS011;24958;48.066;11.038;2022-07-10T12:30:47;1.83;;;1.73;;
39256;SDS011;24958;48.066;11.038;2022-07-10T12:33:19;3.08;;;1.92;;
39256;SDS011;24958;48.066;11.038;2022-07-10T12:41:07;1.95;;;1.55;;
39256;SDS011;24958;48.066;11.038;2022-07-10T12:43:33;2.10;;;1.90;;
39256;SDS011;24958;48.066;11.038;2022-07-10T12:46:15;2.60;;;2.00;;
39256;SDS011;24958;48.066;11.038;2022-07-10T12:48:43;2.03;;;1.50;;
39256;SDS011;24958;48.066;11.038;2022-07-10T12:51:19;2.22;;;1.63;;
39256;SDS011;24958;48.066;11.038;2022-07-10T12:53:45;1.90;;;1.80;;
39256;SDS011;24958;48.066;11.038;2022-07-10T12:58:59;1.73;;;1.63;;
39256;SDS011;24958;48.066;11.038;2022-07-10T13:01:26;1.98;;;1.77;;
39256;SDS011;24958;48.066;11.038;2022-07-10T13:04:00;3.25;;;1.75;;
39256;SDS011;24958;48.066;11.038;2022-07-10T13:06:30;2.25;;;1.85;;
39256;SDS011;24958;48.066;11.038;2022-07-10T13:08:56;2.05;;;1.60;;
39256;SDS011;24958;48.066;11.038;2022-07-10T13:11:22;3.45;;;2.15;;
39256;SDS011;24958;48.066;11.038;2022-07-10T13:13:48;1.77;;;1.63;;
39256;SDS011;24958;48.066;11.038;2022-07-10T13:16:14;2.25;;;2.05;;
39256;SDS011;24958;48.066;11.038;2022-07-10T13:18:44;2.30;;;1.65;;
39256;SDS011;24958;48.066;11.038;2022-07-10T13:21:10;2.35;;;1.98;;
39256;SDS011;24958;48.066;11.038;2022-07-10T13:23:37;2.33;;;1.98;;
39256;SDS011;24958;48.066;11.038;2022-07-10T13:26:03;2.53;;;1.65;;
39256;SDS011;24958;48.066;11.038;2022-07-10T13:28:31;2.55;;;2.00;;
39256;SDS011;24958;48.066;11.038;2022-07-10T13:30:57;2.28;;;1.90;;
39256;SDS011;24958;48.066;11.038;2022-07-10T13:33:23;3.33;;;1.92;;
39256;SDS011;24958;48.066;11.038;2022-07-10T13:35:49;1.70;;;1.60;;
39256;SDS011;24958;48.066;11.038;2022-07-10T13:38:15;2.95;;;1.70;;
39256;SDS011;24958;48.066;11.038;2022-07-10T13:40:45;3.42;;;2.25;;
39256;SDS011;24958;48.066;11.038;2022-07-10T13:43:12;9.05;;;2.25;;
39256;SDS011;24958;48.066;11.038;2022-07-10T13:45:38;3.45;;;2.10;;
39256;SDS011;24958;48.066;11.038;2022-07-10T13:48:13;1.70;;;1.60;;
39256;SDS011;24958;48.066;11.038;2022-07-10T13:50:43;1.63;;;1.52;;
39256;SDS011;24958;48.066;11.038;2022-07-10T13:53:11;2.65;;;1.88;;
39256;SDS011;24958;48.066;11.038;2022-07-10T13:55:38;1.90;;;1.80;;
39256;SDS011;24958;48.066;11.038;2022-07-10T13:58:04;4.72;;;1.90;;
39256;SDS011;24958;48.066;11.038;2022-07-10T14:00:30;2.58;;;1.77;;
39256;SDS011;24958;48.066;11.038;2022-07-10T14:02:56;2.75;;;1.92;;
39256;SDS011;24958;48.066;11.038;2022-07-10T14:05:23;1.83;;;1.73;;
39256;SDS011;24958;48.066;11.038;2022-07-10T14:07:49;2.40;;;1.77;;
39256;SDS011;24958;48.066;11.038;2022-07-10T14:10:15;2.83;;;1.83;;
39256;SDS011;24958;48.066;11.038;2022-07-10T14:12:41;1.67;;;1.58;;
39256;SDS011;24958;48.066;11.038;2022-07-10T14:15:07;1.65;;;1.45;;
39256;SDS011;24958;48.066;11.038;2022-07-10T14:17:33;3.28;;;1.90;;
39256;SDS011;24958;48.066;11.038;2022-07-10T14:19:59;1.63;;;1.52;;
39256;SDS011;24958;48.066;11.038;2022-07-10T14:22:25;2.95;;;1.88;;
39256;SDS011;24958;48.066;11.038;2022-07-10T14:24:53;2.08;;;1.52;;
39256;SDS011;24958;48.066;11.038;2022-07-10T14:27:19;2.28;;;1.85;;
39256;SDS011;24958;48.066;11.038;2022-07-10T14:29:45;1.75;;;1.50;;
39256;SDS011;24958;48.066;11.038;2022-07-10T14:32:11;2.15;;;1.88;;
39256;SDS011;24958;48.066;11.038;2022-07-10T14:34:37;3.08;;;1.80;;
39256;SDS011;24958;48.066;11.038;2022-07-10T14:37:03;2.67;;;2.00;;
39256;SDS011;24958;48.066;11.038;2022-07-10T14:39:29;1.90;;;1.80;;
39256;SDS011;24958;48.066;11.038;2022-07-10T14:41:55;2.85;;;1.88;;
39256;SDS011;24958;48.066;11.038;2022-07-10T14:44:21;3.20;;;1.70;;
39256;SDS011;24958;48.066;11.038;2022-07-10T14:46:47;2.85;;;1.83;;
39256;SDS011;24958;48.066;11.038;2022-07-10T14:49:13;3.53;;;2.00;;
39256;SDS011;24958;48.066;11.038;2022-07-10T14:51:39;1.83;;;1.70;;
39256;SDS011;24958;48.066;11.038;2022-07-10T14:54:06;1.73;;;1.58;;
39256;SDS011;24958;48.066;11.038;2022-07-10T14:56:33;1.88;;;1.60;;
39256;SDS011;24958;48.066;11.038;2022-07-10T14:58:59;1.85;;;1.40;;
39256;SDS011;24958;48.066;11.038;2022-07-10T15:01:25;2.70;;;1.70;;
39256;SDS011;24958;48.066;11.038;2022-07-10T15:03:51;1.95;;;1.70;;
39256;SDS011;24958;48.066;11.038;2022-07-10T15:06:20;2.28;;;1.58;;
39256;SDS011;24958;48.066;11.038;2022-07-10T15:08:46;2.22;;;1.63;;
39256;SDS011;24958;48.066;11.038;2022-07-10T15:11:15;2.00;;;1.80;;
39256;SDS011;24958;48.066;11.038;2022-07-10T15:13:41;1.85;;;1.67;;
39256;SDS011;24958;48.066;11.038;2022-07-10T15:16:07;3.58;;;1.75;;
39256;SDS011;24958;48.066;11.038;2022-07-10T15:18:33;3.72;;;1.52;;